臺北終端管制區 - 桃園五邊雷達席

METAR RCTP 212330Z 15003KT 110V180 9999 FEW012 31/25 Q1014 NOSIG RMK A2995=

站台狀態:Offline
最後更新:2018-09-22 07:45:02